sensor_id;sensor_type;location;lat;lon;timestamp;pressure;altitude;pressure_sealevel;temperature;humidity
34073;BME280;20346;52.702;16.886;2023-08-01T00:00:54;99708.89;;;19.25;64.38
34073;BME280;20346;52.702;16.886;2023-08-01T00:04:21;99701.21;;;19.25;64.40
34073;BME280;20346;52.702;16.886;2023-08-01T00:07:47;99694.75;;;19.25;64.50
34073;BME280;20346;52.702;16.886;2023-08-01T00:11:13;99688.11;;;19.25;64.37
34073;BME280;20346;52.702;16.886;2023-08-01T00:14:39;99678.44;;;19.23;64.45
34073;BME280;20346;52.702;16.886;2023-08-01T00:18:05;99668.76;;;19.22;64.47
34073;BME280;20346;52.702;16.886;2023-08-01T00:21:31;99662.09;;;19.22;64.67
34073;BME280;20346;52.702;16.886;2023-08-01T00:24:57;99656.46;;;19.23;64.47
34073;BME280;20346;52.702;16.886;2023-08-01T00:28:24;99653.30;;;19.23;64.58
34073;BME280;20346;52.702;16.886;2023-08-01T00:31:50;99643.55;;;19.23;64.69
34073;BME280;20346;52.702;16.886;2023-08-01T00:35:16;99640.19;;;19.23;64.57
34073;BME280;20346;52.702;16.886;2023-08-01T00:38:42;99631.50;;;19.23;64.64
34073;BME280;20346;52.702;16.886;2023-08-01T00:42:09;99623.90;;;19.24;64.73
34073;BME280;20346;52.702;16.886;2023-08-01T00:45:35;99622.28;;;19.24;64.62
34073;BME280;20346;52.702;16.886;2023-08-01T00:49:01;99616.40;;;19.23;64.71
34073;BME280;20346;52.702;16.886;2023-08-01T00:52:27;99613.84;;;19.23;64.71
34073;BME280;20346;52.702;16.886;2023-08-01T00:55:54;99611.52;;;19.23;64.63
34073;BME280;20346;52.702;16.886;2023-08-01T00:59:20;99610.60;;;19.24;64.67
34073;BME280;20346;52.702;16.886;2023-08-01T01:02:46;99621.17;;;19.25;64.65
34073;BME280;20346;52.702;16.886;2023-08-01T01:09:19;99610.05;;;19.27;64.63
34073;BME280;20346;52.702;16.886;2023-08-01T01:12:45;99606.10;;;19.28;64.63
34073;BME280;20346;52.702;16.886;2023-08-01T01:16:11;99606.66;;;19.30;64.70
34073;BME280;20346;52.702;16.886;2023-08-01T01:19:37;99597.80;;;19.32;64.67
34073;BME280;20346;52.702;16.886;2023-08-01T01:23:05;99593.69;;;19.33;64.60
34073;BME280;20346;52.702;16.886;2023-08-01T01:26:32;99583.70;;;19.33;64.66
34073;BME280;20346;52.702;16.886;2023-08-01T01:29:57;99573.34;;;19.34;64.73
34073;BME280;20346;52.702;16.886;2023-08-01T01:33:24;99566.62;;;19.33;64.65
34073;BME280;20346;52.702;16.886;2023-08-01T01:36:50;99559.60;;;19.33;64.61
34073;BME280;20346;52.702;16.886;2023-08-01T01:40:17;99544.57;;;19.33;64.61
34073;BME280;20346;52.702;16.886;2023-08-01T01:43:43;99536.79;;;19.32;64.62
34073;BME280;20346;52.702;16.886;2023-08-01T01:47:09;99531.71;;;19.32;64.56
34073;BME280;20346;52.702;16.886;2023-08-01T01:50:35;99523.29;;;19.33;64.64
34073;BME280;20346;52.702;16.886;2023-08-01T01:54:01;99516.95;;;19.33;64.68
34073;BME280;20346;52.702;16.886;2023-08-01T01:57:28;99510.98;;;19.34;64.65
34073;BME280;20346;52.702;16.886;2023-08-01T02:00:54;99507.33;;;19.34;64.71
34073;BME280;20346;52.702;16.886;2023-08-01T02:04:20;99500.55;;;19.33;64.80
34073;BME280;20346;52.702;16.886;2023-08-01T02:07:46;99501.81;;;19.33;64.68
34073;BME280;20346;52.702;16.886;2023-08-01T02:11:13;99492.06;;;19.32;64.82
34073;BME280;20346;52.702;16.886;2023-08-01T02:14:39;99487.06;;;19.31;64.83
34073;BME280;20346;52.702;16.886;2023-08-01T02:18:05;99482.52;;;19.31;64.83
34073;BME280;20346;52.702;16.886;2023-08-01T02:21:31;99477.11;;;19.31;64.83
34073;BME280;20346;52.702;16.886;2023-08-01T02:24:22;99468.16;;;19.29;64.91
34073;BME280;20346;52.702;16.886;2023-08-01T02:27:48;99465.60;;;19.26;65.01
34073;BME280;20346;52.702;16.886;2023-08-01T02:31:15;99470.27;;;19.24;65.00
34073;BME280;20346;52.702;16.886;2023-08-01T02:34:40;99468.77;;;19.21;65.10
34073;BME280;20346;52.702;16.886;2023-08-01T02:38:06;99467.96;;;19.17;65.13
34073;BME280;20346;52.702;16.886;2023-08-01T02:41:32;99465.15;;;19.12;65.43
34073;BME280;20346;52.702;16.886;2023-08-01T02:44:58;99462.66;;;19.08;65.37
34073;BME280;20346;52.702;16.886;2023-08-01T02:48:24;99460.76;;;19.03;65.42
34073;BME280;20346;52.702;16.886;2023-08-01T02:51:50;99460.40;;;18.98;65.56
34073;BME280;20346;52.702;16.886;2023-08-01T02:55:17;99457.77;;;18.93;65.53
34073;BME280;20346;52.702;16.886;2023-08-01T02:58:43;99453.26;;;18.90;65.68
34073;BME280;20346;52.702;16.886;2023-08-01T03:02:10;99451.10;;;18.86;65.65
34073;BME280;20346;52.702;16.886;2023-08-01T03:05:36;99452.05;;;18.82;65.71
34073;BME280;20346;52.702;16.886;2023-08-01T03:09:02;99452.13;;;18.78;65.81
34073;BME280;20346;52.702;16.886;2023-08-01T03:12:28;99451.53;;;18.74;65.90
34073;BME280;20346;52.702;16.886;2023-08-01T03:15:54;99441.42;;;18.70;65.97
34073;BME280;20346;52.702;16.886;2023-08-01T03:19:20;99433.39;;;18.67;66.14
34073;BME280;20346;52.702;16.886;2023-08-01T03:22:46;99434.45;;;18.64;66.00
34073;BME280;20346;52.702;16.886;2023-08-01T03:26:12;99435.48;;;18.59;66.22
34073;BME280;20346;52.702;16.886;2023-08-01T03:29:38;99434.00;;;18.52;66.22
34073;BME280;20346;52.702;16.886;2023-08-01T03:33:04;99430.67;;;18.47;66.14
34073;BME280;20346;52.702;16.886;2023-08-01T03:36:29;99425.30;;;18.44;66.20
34073;BME280;20346;52.702;16.886;2023-08-01T03:39:55;99422.58;;;18.41;66.41
34073;BME280;20346;52.702;16.886;2023-08-01T03:43:21;99421.55;;;18.38;66.53
34073;BME280;20346;52.702;16.886;2023-08-01T03:46:29;99417.59;;;18.37;66.60
34073;BME280;20346;52.702;16.886;2023-08-01T03:49:55;99420.36;;;18.35;66.76
34073;BME280;20346;52.702;16.886;2023-08-01T03:53:21;99416.54;;;18.29;66.55
34073;BME280;20346;52.702;16.886;2023-08-01T03:56:47;99410.95;;;18.24;66.59
34073;BME280;20346;52.702;16.886;2023-08-01T04:00:13;99411.38;;;18.20;66.86
34073;BME280;20346;52.702;16.886;2023-08-01T04:03:39;99410.06;;;18.19;67.05
34073;BME280;20346;52.702;16.886;2023-08-01T04:07:05;99410.00;;;18.15;67.04
34073;BME280;20346;52.702;16.886;2023-08-01T04:10:31;99410.66;;;18.13;67.20
34073;BME280;20346;52.702;16.886;2023-08-01T04:13:57;99409.17;;;18.12;67.15
34073;BME280;20346;52.702;16.886;2023-08-01T04:17:03;99406.55;;;18.10;67.20
34073;BME280;20346;52.702;16.886;2023-08-01T04:20:09;99400.59;;;18.08;67.40
34073;BME280;20346;52.702;16.886;2023-08-01T04:23:16;99399.94;;;18.07;67.56
34073;BME280;20346;52.702;16.886;2023-08-01T04:26:42;99397.83;;;18.07;67.66
34073;BME280;20346;52.702;16.886;2023-08-01T04:30:08;99397.20;;;18.06;67.58
34073;BME280;20346;52.702;16.886;2023-08-01T04:33:15;99395.91;;;18.04;67.65
34073;BME280;20346;52.702;16.886;2023-08-01T04:36:25;99387.33;;;18.02;67.84
34073;BME280;20346;52.702;16.886;2023-08-01T04:39:47;99384.29;;;18.01;67.80
34073;BME280;20346;52.702;16.886;2023-08-01T04:43:13;99381.52;;;18.01;67.89
34073;BME280;20346;52.702;16.886;2023-08-01T04:46:39;99375.56;;;17.98;68.08
34073;BME280;20346;52.702;16.886;2023-08-01T04:50:05;99370.90;;;18.00;68.12
34073;BME280;20346;52.702;16.886;2023-08-01T04:53:12;99368.20;;;18.02;68.30
34073;BME280;20346;52.702;16.886;2023-08-01T04:56:38;99361.27;;;18.01;68.25
34073;BME280;20346;52.702;16.886;2023-08-01T05:00:04;99354.08;;;18.01;68.17
34073;BME280;20346;52.702;16.886;2023-08-01T05:03:33;99346.45;;;18.03;68.42
34073;BME280;20346;52.702;16.886;2023-08-01T05:06:59;99341.28;;;18.05;68.42
34073;BME280;20346;52.702;16.886;2023-08-01T05:10:26;99338.41;;;18.09;68.56
34073;BME280;20346;52.702;16.886;2023-08-01T05:13:55;99338.44;;;18.11;68.62
34073;BME280;20346;52.702;16.886;2023-08-01T05:17:22;99338.40;;;18.14;68.73
34073;BME280;20346;52.702;16.886;2023-08-01T05:20:48;99326.41;;;18.16;68.81
34073;BME280;20346;52.702;16.886;2023-08-01T05:24:17;99326.87;;;18.17;68.94
34073;BME280;20346;52.702;16.886;2023-08-01T05:27:47;99314.77;;;18.20;68.89
34073;BME280;20346;52.702;16.886;2023-08-01T05:34:04;99311.05;;;18.29;68.95
34073;BME280;20346;52.702;16.886;2023-08-01T05:37:27;99305.88;;;18.38;69.10
34073;BME280;20346;52.702;16.886;2023-08-01T05:40:53;99302.11;;;18.47;69.08
34073;BME280;20346;52.702;16.886;2023-08-01T05:44:27;99303.59;;;18.56;69.20
34073;BME280;20346;52.702;16.886;2023-08-01T05:47:27;99308.36;;;18.60;69.03
34073;BME280;20346;52.702;16.886;2023-08-01T05:50:41;99306.34;;;18.62;69.11
34073;BME280;20346;52.702;16.886;2023-08-01T05:53:32;99305.23;;;18.63;69.12
34073;BME280;20346;52.702;16.886;2023-08-01T05:56:59;99301.58;;;18.62;69.19
34073;BME280;20346;52.702;16.886;2023-08-01T06:00:25;99300.70;;;18.60;69.37
34073;BME280;20346;52.702;16.886;2023-08-01T06:03:51;99295.30;;;18.60;69.48
34073;BME280;20346;52.702;16.886;2023-08-01T06:06:39;99291.92;;;18.63;69.39
34073;BME280;20346;52.702;16.886;2023-08-01T06:10:05;99286.08;;;18.67;69.60
34073;BME280;20346;52.702;16.886;2023-08-01T06:13:32;99291.55;;;18.71;69.67
34073;BME280;20346;52.702;16.886;2023-08-01T06:16:58;99291.64;;;18.74;69.69
34073;BME280;20346;52.702;16.886;2023-08-01T06:20:24;99290.77;;;18.76;69.56
34073;BME280;20346;52.702;16.886;2023-08-01T06:23:50;99283.87;;;18.73;69.59
34073;BME280;20346;52.702;16.886;2023-08-01T06:27:17;99278.73;;;18.72;69.73
34073;BME280;20346;52.702;16.886;2023-08-01T06:30:43;99280.12;;;18.74;69.68
34073;BME280;20346;52.702;16.886;2023-08-01T06:34:09;99272.09;;;18.72;69.78
34073;BME280;20346;52.702;16.886;2023-08-01T06:37:36;99270.05;;;18.73;69.86
34073;BME280;20346;52.702;16.886;2023-08-01T06:41:02;99266.85;;;18.76;69.89
34073;BME280;20346;52.702;16.886;2023-08-01T06:44:28;99265.98;;;18.79;69.88
34073;BME280;20346;52.702;16.886;2023-08-01T06:47:55;99262.26;;;18.84;70.17
34073;BME280;20346;52.702;16.886;2023-08-01T06:51:21;99260.86;;;18.90;69.97
34073;BME280;20346;52.702;16.886;2023-08-01T06:54:48;99258.15;;;18.93;70.13
34073;BME280;20346;52.702;16.886;2023-08-01T06:58:14;99250.73;;;18.96;70.15
34073;BME280;20346;52.702;16.886;2023-08-01T07:01:41;99246.40;;;19.01;70.14
34073;BME280;20346;52.702;16.886;2023-08-01T07:05:14;99244.60;;;19.06;70.06
34073;BME280;20346;52.702;16.886;2023-08-01T07:08:41;99247.75;;;19.16;70.31
34073;BME280;20346;52.702;16.886;2023-08-01T07:12:10;99251.05;;;19.30;70.09
34073;BME280;20346;52.702;16.886;2023-08-01T07:15:36;99248.32;;;19.34;70.08
34073;BME280;20346;52.702;16.886;2023-08-01T07:19:03;99239.33;;;19.33;70.24
34073;BME280;20346;52.702;16.886;2023-08-01T07:21:56;99246.59;;;19.31;70.15
34073;BME280;20346;52.702;16.886;2023-08-01T07:25:03;99244.09;;;19.30;70.26
34073;BME280;20346;52.702;16.886;2023-08-01T07:27:36;99239.36;;;19.28;70.26
34073;BME280;20346;52.702;16.886;2023-08-01T07:31:04;99234.77;;;19.31;70.37
34073;BME280;20346;52.702;16.886;2023-08-01T07:34:30;99228.09;;;19.33;70.41
34073;BME280;20346;52.702;16.886;2023-08-01T07:37:57;99229.77;;;19.34;70.24
34073;BME280;20346;52.702;16.886;2023-08-01T07:41:23;99223.45;;;19.37;70.36
34073;BME280;20346;52.702;16.886;2023-08-01T07:44:17;99211.27;;;19.41;70.42
34073;BME280;20346;52.702;16.886;2023-08-01T07:47:44;99208.79;;;19.56;70.67
34073;BME280;20346;52.702;16.886;2023-08-01T07:51:10;99211.61;;;19.67;70.53
34073;BME280;20346;52.702;16.886;2023-08-01T07:53:43;99208.68;;;19.71;70.37
34073;BME280;20346;52.702;16.886;2023-08-01T07:56:25;99208.13;;;19.71;70.35
34073;BME280;20346;52.702;16.886;2023-08-01T07:59:05;99209.06;;;19.68;70.31
34073;BME280;20346;52.702;16.886;2023-08-01T08:01:45;99209.73;;;19.67;70.46
34073;BME280;20346;52.702;16.886;2023-08-01T08:04:25;99206.07;;;19.64;70.40
34073;BME280;20346;52.702;16.886;2023-08-01T08:07:51;99202.77;;;19.61;70.41
34073;BME280;20346;52.702;16.886;2023-08-01T08:11:16;99204.67;;;19.59;70.57
34073;BME280;20346;52.702;16.886;2023-08-01T08:14:43;99199.67;;;19.61;70.51
34073;BME280;20346;52.702;16.886;2023-08-01T08:18:09;99192.79;;;19.64;70.52
34073;BME280;20346;52.702;16.886;2023-08-01T08:21:35;99185.96;;;19.69;70.66
34073;BME280;20346;52.702;16.886;2023-08-01T08:24:21;99187.54;;;19.73;70.69
34073;BME280;20346;52.702;16.886;2023-08-01T08:27:27;99190.48;;;19.76;70.59
34073;BME280;20346;52.702;16.886;2023-08-01T08:30:13;99190.71;;;19.73;70.81
34073;BME280;20346;52.702;16.886;2023-08-01T08:32:59;99183.86;;;19.71;70.69
34073;BME280;20346;52.702;16.886;2023-08-01T08:35:50;99178.85;;;19.66;70.80
34073;BME280;20346;52.702;16.886;2023-08-01T08:38:45;99176.54;;;19.66;70.78
34073;BME280;20346;52.702;16.886;2023-08-01T08:41:22;99173.33;;;19.67;70.84
34073;BME280;20346;52.702;16.886;2023-08-01T08:43:56;99171.67;;;19.68;70.91
34073;BME280;20346;52.702;16.886;2023-08-01T08:46:29;99169.25;;;19.70;70.93
34073;BME280;20346;52.702;16.886;2023-08-01T08:49:01;99165.77;;;19.70;70.89
34073;BME280;20346;52.702;16.886;2023-08-01T08:51:38;99161.90;;;19.70;70.97
34073;BME280;20346;52.702;16.886;2023-08-01T08:54:08;99156.07;;;19.71;71.05
34073;BME280;20346;52.702;16.886;2023-08-01T08:56:42;99156.87;;;19.72;71.06
34073;BME280;20346;52.702;16.886;2023-08-01T08:59:16;99152.92;;;19.71;71.13
34073;BME280;20346;52.702;16.886;2023-08-01T09:01:49;99160.47;;;19.68;70.89
34073;BME280;20346;52.702;16.886;2023-08-01T09:04:54;99158.27;;;19.65;71.09
34073;BME280;20346;52.702;16.886;2023-08-01T09:08:21;99157.08;;;19.65;71.07
34073;BME280;20346;52.702;16.886;2023-08-01T09:11:50;99153.05;;;19.64;71.05
34073;BME280;20346;52.702;16.886;2023-08-01T09:14:56;99149.27;;;19.64;71.04
34073;BME280;20346;52.702;16.886;2023-08-01T09:18:25;99145.48;;;19.63;71.24
34073;BME280;20346;52.702;16.886;2023-08-01T09:21:06;99143.42;;;19.61;71.29
34073;BME280;20346;52.702;16.886;2023-08-01T09:26:37;99141.69;;;19.60;71.36
34073;BME280;20346;52.702;16.886;2023-08-01T09:29:53;99134.02;;;19.58;71.43
34073;BME280;20346;52.702;16.886;2023-08-01T09:32:53;99127.67;;;19.56;71.47
34073;BME280;20346;52.702;16.886;2023-08-01T09:35:26;99126.39;;;19.57;71.44
34073;BME280;20346;52.702;16.886;2023-08-01T09:37:59;99123.98;;;19.56;71.45
34073;BME280;20346;52.702;16.886;2023-08-01T09:40:36;99120.91;;;19.58;71.54
34073;BME280;20346;52.702;16.886;2023-08-01T09:43:10;99121.91;;;19.58;71.56
34073;BME280;20346;52.702;16.886;2023-08-01T09:45:50;99115.30;;;19.58;71.68
34073;BME280;20346;52.702;16.886;2023-08-01T09:49:16;99108.25;;;19.59;71.69
34073;BME280;20346;52.702;16.886;2023-08-01T09:52:00;99100.81;;;19.60;71.74
34073;BME280;20346;52.702;16.886;2023-08-01T09:57:22;99099.14;;;19.59;71.74
34073;BME280;20346;52.702;16.886;2023-08-01T10:00:07;99096.59;;;19.56;71.82
34073;BME280;20346;52.702;16.886;2023-08-01T10:02:47;99094.35;;;19.55;71.63
34073;BME280;20346;52.702;16.886;2023-08-01T10:05:29;99091.66;;;19.51;71.49
34073;BME280;20346;52.702;16.886;2023-08-01T10:08:55;99089.52;;;19.42;71.74
34073;BME280;20346;52.702;16.886;2023-08-01T10:12:21;99084.19;;;19.37;71.77
34073;BME280;20346;52.702;16.886;2023-08-01T10:15:18;99080.64;;;19.35;71.85
34073;BME280;20346;52.702;16.886;2023-08-01T10:18:44;99082.14;;;19.36;72.09
34073;BME280;20346;52.702;16.886;2023-08-01T10:21:34;99076.38;;;19.36;72.11
34073;BME280;20346;52.702;16.886;2023-08-01T10:24:21;99073.91;;;19.36;72.02
34073;BME280;20346;52.702;16.886;2023-08-01T10:27:18;99065.73;;;19.38;72.24
34073;BME280;20346;52.702;16.886;2023-08-01T10:30:04;99064.23;;;19.37;72.19
34073;BME280;20346;52.702;16.886;2023-08-01T10:33:18;99056.14;;;19.38;72.15
34073;BME280;20346;52.702;16.886;2023-08-01T10:36:14;99054.05;;;19.36;72.11
34073;BME280;20346;52.702;16.886;2023-08-01T10:39:01;99050.94;;;19.31;72.19
34073;BME280;20346;52.702;16.886;2023-08-01T10:41:56;99051.22;;;19.27;72.01
34073;BME280;20346;52.702;16.886;2023-08-01T10:44:46;99051.72;;;19.25;72.32
34073;BME280;20346;52.702;16.886;2023-08-01T10:47:32;99050.05;;;19.26;72.40
34073;BME280;20346;52.702;16.886;2023-08-01T10:50:18;99051.30;;;19.31;72.34
34073;BME280;20346;52.702;16.886;2023-08-01T10:53:08;99052.85;;;19.31;72.51
34073;BME280;20346;52.702;16.886;2023-08-01T10:55:55;99050.42;;;19.35;72.44
34073;BME280;20346;52.702;16.886;2023-08-01T10:58:43;99049.77;;;19.37;72.63
34073;BME280;20346;52.702;16.886;2023-08-01T11:01:30;99049.85;;;19.42;72.66
34073;BME280;20346;52.702;16.886;2023-08-01T11:04:17;99044.02;;;19.48;72.66
34073;BME280;20346;52.702;16.886;2023-08-01T11:07:31;99036.39;;;19.52;72.67
34073;BME280;20346;52.702;16.886;2023-08-01T11:10:18;99034.66;;;19.56;72.59
34073;BME280;20346;52.702;16.886;2023-08-01T11:13:04;99032.23;;;19.60;72.63
34073;BME280;20346;52.702;16.886;2023-08-01T11:15:50;99028.24;;;19.69;72.61
34073;BME280;20346;52.702;16.886;2023-08-01T11:18:42;99022.45;;;19.84;72.91
34073;BME280;20346;52.702;16.886;2023-08-01T11:21:29;99019.27;;;20.00;72.86
34073;BME280;20346;52.702;16.886;2023-08-01T11:24:55;99019.20;;;20.18;72.77
34073;BME280;20346;52.702;16.886;2023-08-01T11:28:22;99013.02;;;20.31;72.72
34073;BME280;20346;52.702;16.886;2023-08-01T11:31:55;99008.71;;;20.34;72.66
34073;BME280;20346;52.702;16.886;2023-08-01T11:35:20;99007.39;;;20.36;72.66
34073;BME280;20346;52.702;16.886;2023-08-01T11:38:47;99006.98;;;20.36;72.68
34073;BME280;20346;52.702;16.886;2023-08-01T11:41:33;99003.79;;;20.39;72.71
34073;BME280;20346;52.702;16.886;2023-08-01T11:44:23;99013.02;;;20.46;72.87
34073;BME280;20346;52.702;16.886;2023-08-01T11:47:13;99016.10;;;20.56;72.88
34073;BME280;20346;52.702;16.886;2023-08-01T11:49:59;99010.77;;;20.61;72.67
34073;BME280;20346;52.702;16.886;2023-08-01T11:52:46;99002.96;;;20.62;72.68
34073;BME280;20346;52.702;16.886;2023-08-01T11:55:40;99002.09;;;20.66;72.56
34073;BME280;20346;52.702;16.886;2023-08-01T11:58:29;98999.91;;;20.65;72.61
34073;BME280;20346;52.702;16.886;2023-08-01T12:01:24;98997.96;;;20.70;72.63
34073;BME280;20346;52.702;16.886;2023-08-01T12:04:10;98995.92;;;20.75;72.82
34073;BME280;20346;52.702;16.886;2023-08-01T12:07:17;98990.83;;;20.83;72.84
34073;BME280;20346;52.702;16.886;2023-08-01T12:10:03;98990.46;;;20.92;72.90
34073;BME280;20346;52.702;16.886;2023-08-01T12:12:51;98986.66;;;20.99;72.83
34073;BME280;20346;52.702;16.886;2023-08-01T12:15:38;98984.50;;;21.02;72.50
34073;BME280;20346;52.702;16.886;2023-08-01T12:18:27;98984.95;;;21.05;72.70
34073;BME280;20346;52.702;16.886;2023-08-01T12:21:14;98992.91;;;21.08;72.56
34073;BME280;20346;52.702;16.886;2023-08-01T12:24:01;98996.15;;;21.09;72.77
34073;BME280;20346;52.702;16.886;2023-08-01T12:26:48;98992.55;;;21.08;72.77
34073;BME280;20346;52.702;16.886;2023-08-01T12:29:42;98994.08;;;21.03;72.42
34073;BME280;20346;52.702;16.886;2023-08-01T12:32:48;98999.39;;;20.98;72.64
34073;BME280;20346;52.702;16.886;2023-08-01T12:35:43;98997.60;;;20.96;72.72
34073;BME280;20346;52.702;16.886;2023-08-01T12:39:09;98988.60;;;20.93;72.69
34073;BME280;20346;52.702;16.886;2023-08-01T12:41:53;98995.09;;;20.89;72.58
34073;BME280;20346;52.702;16.886;2023-08-01T12:45:20;98995.61;;;20.83;72.63
34073;BME280;20346;52.702;16.886;2023-08-01T12:48:46;99004.52;;;20.73;72.53
34073;BME280;20346;52.702;16.886;2023-08-01T12:52:12;99010.04;;;20.61;72.53
34073;BME280;20346;52.702;16.886;2023-08-01T12:55:19;99016.13;;;20.51;72.55
34073;BME280;20346;52.702;16.886;2023-08-01T12:58:46;99016.92;;;20.35;72.55
34073;BME280;20346;52.702;16.886;2023-08-01T13:02:15;99019.66;;;20.29;72.76
34073;BME280;20346;52.702;16.886;2023-08-01T13:05:42;99016.14;;;20.34;72.74
34073;BME280;20346;52.702;16.886;2023-08-01T13:09:08;99006.57;;;20.42;72.88
34073;BME280;20346;52.702;16.886;2023-08-01T13:12:32;99005.63;;;20.59;72.92
34073;BME280;20346;52.702;16.886;2023-08-01T13:16:01;99003.58;;;20.76;72.74
34073;BME280;20346;52.702;16.886;2023-08-01T13:19:28;99012.27;;;20.93;72.86
34073;BME280;20346;52.702;16.886;2023-08-01T13:22:54;99012.04;;;21.14;73.02
34073;BME280;20346;52.702;16.886;2023-08-01T13:26:21;99013.93;;;21.33;73.00
34073;BME280;20346;52.702;16.886;2023-08-01T13:29:47;99020.02;;;21.43;72.88
34073;BME280;20346;52.702;16.886;2023-08-01T13:33:13;99026.33;;;21.58;72.84
34073;BME280;20346;52.702;16.886;2023-08-01T13:36:07;99024.63;;;21.69;72.88
34073;BME280;20346;52.702;16.886;2023-08-01T13:38:53;99031.74;;;21.78;72.85
34073;BME280;20346;52.702;16.886;2023-08-01T13:41:40;99020.11;;;21.85;72.78
34073;BME280;20346;52.702;16.886;2023-08-01T13:44:06;99017.36;;;21.84;72.40
34073;BME280;20346;52.702;16.886;2023-08-01T13:46:52;99013.73;;;21.82;72.61
34073;BME280;20346;52.702;16.886;2023-08-01T13:49:39;99010.64;;;21.89;72.57
34073;BME280;20346;52.702;16.886;2023-08-01T13:52:25;98999.65;;;21.94;72.55
34073;BME280;20346;52.702;16.886;2023-08-01T13:55:11;98997.49;;;22.00;72.53
34073;BME280;20346;52.702;16.886;2023-08-01T13:57:57;98993.20;;;22.01;72.29
34073;BME280;20346;52.702;16.886;2023-08-01T14:00:43;98996.59;;;22.00;72.31
34073;BME280;20346;52.702;16.886;2023-08-01T14:03:33;99009.60;;;21.98;72.36
34073;BME280;20346;52.702;16.886;2023-08-01T14:06:20;99015.63;;;21.93;72.23
34073;BME280;20346;52.702;16.886;2023-08-01T14:09:10;99027.50;;;21.88;72.07
34073;BME280;20346;52.702;16.886;2023-08-01T14:11:56;99025.91;;;21.83;72.15
34073;BME280;20346;52.702;16.886;2023-08-01T14:14:43;99026.35;;;21.79;72.04
34073;BME280;20346;52.702;16.886;2023-08-01T14:17:29;99022.15;;;21.73;72.00
34073;BME280;20346;52.702;16.886;2023-08-01T14:20:16;99009.80;;;21.68;72.04
34073;BME280;20346;52.702;16.886;2023-08-01T14:23:03;99006.56;;;21.67;72.06
34073;BME280;20346;52.702;16.886;2023-08-01T14:25:49;99015.94;;;21.66;72.12
34073;BME280;20346;52.702;16.886;2023-08-01T14:28:35;99022.20;;;21.67;72.17
34073;BME280;20346;52.702;16.886;2023-08-01T14:31:21;99022.80;;;21.70;72.14
34073;BME280;20346;52.702;16.886;2023-08-01T14:34:08;99011.62;;;21.73;72.21
34073;BME280;20346;52.702;16.886;2023-08-01T14:36:54;99011.20;;;21.78;72.15
34073;BME280;20346;52.702;16.886;2023-08-01T14:39:41;99010.95;;;21.81;72.04
34073;BME280;20346;52.702;16.886;2023-08-01T14:42:27;99006.46;;;21.82;72.06
34073;BME280;20346;52.702;16.886;2023-08-01T14:45:13;99004.16;;;21.85;72.17
34073;BME280;20346;52.702;16.886;2023-08-01T14:48:00;99012.04;;;21.94;72.18
34073;BME280;20346;52.702;16.886;2023-08-01T14:51:26;99010.20;;;22.05;72.02
34073;BME280;20346;52.702;16.886;2023-08-01T14:54:53;99012.89;;;22.08;71.89
34073;BME280;20346;52.702;16.886;2023-08-01T14:58:19;99011.73;;;22.08;71.79
34073;BME280;20346;52.702;16.886;2023-08-01T15:01:46;99004.52;;;22.02;71.76
34073;BME280;20346;52.702;16.886;2023-08-01T15:04:33;99003.34;;;21.99;71.68
34073;BME280;20346;52.702;16.886;2023-08-01T15:07:19;99006.57;;;22.00;71.75
34073;BME280;20346;52.702;16.886;2023-08-01T15:10:05;99000.73;;;22.03;71.69
34073;BME280;20346;52.702;16.886;2023-08-01T15:12:52;99009.73;;;22.05;71.70
34073;BME280;20346;52.702;16.886;2023-08-01T15:15:39;99018.44;;;22.09;71.77
34073;BME280;20346;52.702;16.886;2023-08-01T15:18:31;99023.77;;;22.15;71.67
34073;BME280;20346;52.702;16.886;2023-08-01T15:21:55;99032.59;;;22.18;71.43
34073;BME280;20346;52.702;16.886;2023-08-01T15:25:21;99025.45;;;22.13;71.05
34073;BME280;20346;52.702;16.886;2023-08-01T15:28:48;99024.31;;;22.10;71.30
34073;BME280;20346;52.702;16.886;2023-08-01T15:32:14;99022.14;;;22.13;71.26
34073;BME280;20346;52.702;16.886;2023-08-01T15:35:23;99016.92;;;22.12;71.28
34073;BME280;20346;52.702;16.886;2023-08-01T15:38:28;99012.67;;;22.09;71.09
34073;BME280;20346;52.702;16.886;2023-08-01T15:41:15;99010.57;;;22.07;71.24
34073;BME280;20346;52.702;16.886;2023-08-01T15:44:42;99014.73;;;22.02;71.08
34073;BME280;20346;52.702;16.886;2023-08-01T15:47:15;99019.33;;;21.95;71.06
34073;BME280;20346;52.702;16.886;2023-08-01T15:50:42;99033.44;;;21.92;71.25
34073;BME280;20346;52.702;16.886;2023-08-01T15:54:08;99042.45;;;21.94;71.35
34073;BME280;20346;52.702;16.886;2023-08-01T15:57:35;99038.61;;;21.95;71.21
34073;BME280;20346;52.702;16.886;2023-08-01T16:01:02;99033.79;;;21.93;71.12
34073;BME280;20346;52.702;16.886;2023-08-01T16:04:29;99044.85;;;21.91;70.97
34073;BME280;20346;52.702;16.886;2023-08-01T16:07:55;99043.70;;;21.84;71.06
34073;BME280;20346;52.702;16.886;2023-08-01T16:11:22;99038.31;;;21.79;70.85
34073;BME280;20346;52.702;16.886;2023-08-01T16:14:48;99042.99;;;21.72;70.89
34073;BME280;20346;52.702;16.886;2023-08-01T16:18:15;99056.52;;;21.66;70.85
34073;BME280;20346;52.702;16.886;2023-08-01T16:21:43;99054.92;;;21.58;70.61
34073;BME280;20346;52.702;16.886;2023-08-01T16:25:10;99066.27;;;21.50;70.65
34073;BME280;20346;52.702;16.886;2023-08-01T16:27:46;99063.55;;;21.45;70.69
34073;BME280;20346;52.702;16.886;2023-08-01T16:31:13;99050.01;;;21.35;70.48
34073;BME280;20346;52.702;16.886;2023-08-01T16:34:39;99049.28;;;21.32;70.63
34073;BME280;20346;52.702;16.886;2023-08-01T16:38:08;99051.02;;;21.24;70.49
34073;BME280;20346;52.702;16.886;2023-08-01T16:41:37;99056.52;;;21.17;70.73
34073;BME280;20346;52.702;16.886;2023-08-01T16:45:04;99056.70;;;21.12;70.61